Terminal Aerodrome Forecast
Issued by NWS

Home | Current Version | Previous Version | Text Only | Print | Product List | Glossary On
Versions: 1 2 3 4 5 6 7 8 9 10 11 12 13 14 15 16 17
136
FTAK31 PAJN 191732
TAFAJN
TAF
PAJN 191732Z 1918/2018 10012G17KT P6SM -SHRA FEW007 BKN035 OVC040
      TEMPO 1919/1923 5SM -SHRA BR SCT015 BKN025 OVC040
     FM200000 10012KT P6SM -SHRA SCT015 OVC030
     FM201600 10008KT P6SM -SHRA SCT015 OVC040=

USA.gov is the U.S. government's official web portal to all federal, state and local government web resources and services.